createdAt,value
2018-02-12T00:00:19.973Z,965.90
2018-02-12T00:01:19.949Z,965.97
2018-02-12T00:02:19.937Z,965.95
2018-02-12T00:03:19.920Z,965.96
2018-02-12T00:04:19.904Z,965.91
2018-02-12T00:05:19.887Z,965.90
2018-02-12T00:06:19.863Z,965.83
2018-02-12T00:07:19.852Z,965.85
2018-02-12T00:08:19.828Z,965.84
2018-02-12T00:09:19.812Z,965.86
2018-02-12T00:10:19.799Z,965.82
2018-02-12T00:11:19.776Z,965.82
2018-02-12T00:12:19.766Z,965.86
2018-02-12T00:13:19.743Z,965.82
2018-02-12T00:14:19.725Z,965.83
2018-02-12T00:15:19.708Z,965.85
2018-02-12T00:16:19.690Z,965.85
2018-02-12T00:17:19.673Z,965.84
2018-02-12T00:18:19.655Z,965.86
2018-02-12T00:19:19.644Z,965.84
2018-02-12T00:20:19.622Z,965.86
2018-02-12T00:21:19.606Z,965.83
2018-02-12T00:22:19.587Z,965.83
2018-02-12T00:23:19.569Z,965.81
2018-02-12T00:24:19.553Z,965.81
2018-02-12T00:25:19.536Z,965.77
2018-02-12T00:26:19.519Z,965.85
2018-02-12T00:27:19.502Z,965.79
2018-02-12T00:28:19.484Z,965.77
2018-02-12T00:29:19.469Z,965.80
2018-02-12T00:30:19.450Z,965.79
2018-02-12T00:31:19.431Z,965.74
2018-02-12T00:32:19.419Z,965.76
2018-02-12T00:33:19.399Z,965.73
2018-02-12T00:34:19.384Z,965.74
2018-02-12T00:35:19.364Z,965.69
2018-02-12T00:36:19.344Z,965.69
2018-02-12T00:37:19.332Z,965.69
2018-02-12T00:38:19.319Z,965.66
2018-02-12T00:39:19.294Z,965.68
2018-02-12T00:40:19.279Z,965.68
2018-02-12T00:41:19.258Z,965.70
2018-02-12T00:42:19.243Z,965.65
2018-02-12T00:43:19.224Z,965.66
2018-02-12T00:44:19.208Z,965.67
2018-02-12T00:45:19.193Z,965.67
2018-02-12T00:46:19.176Z,965.63
2018-02-12T00:47:19.162Z,965.62
2018-02-12T00:48:19.142Z,965.65
2018-02-12T00:49:19.126Z,965.65
2018-02-12T00:50:19.110Z,965.65
2018-02-12T00:51:19.090Z,965.63
2018-02-12T00:52:19.079Z,965.61
2018-02-12T00:53:19.054Z,965.68
2018-02-12T00:54:19.039Z,965.66
2018-02-12T00:55:19.019Z,965.64
2018-02-12T00:56:19.007Z,965.67
2018-02-12T00:57:18.991Z,965.70
2018-02-12T00:58:18.967Z,965.75
2018-02-12T00:59:18.950Z,965.72
2018-02-12T01:00:18.943Z,965.74
2018-02-12T01:01:18.918Z,965.79
2018-02-12T01:02:18.900Z,965.78
2018-02-12T01:03:18.882Z,965.78
2018-02-12T01:04:18.865Z,965.83
2018-02-12T01:05:18.847Z,965.84
2018-02-12T01:06:18.829Z,965.80
2018-02-12T01:07:18.813Z,965.80
2018-02-12T01:08:18.800Z,965.76
2018-02-12T01:09:18.785Z,965.81
2018-02-12T01:10:18.762Z,965.78
2018-02-12T01:11:18.748Z,965.79
2018-02-12T01:12:18.728Z,965.80
2018-02-12T01:13:18.712Z,965.80
2018-02-12T01:14:18.695Z,965.81
2018-02-12T01:15:18.678Z,965.85
2018-02-12T01:16:18.660Z,965.91
2018-02-12T01:17:18.648Z,965.93
2018-02-12T01:18:18.634Z,965.93
2018-02-12T01:19:18.616Z,965.97
2018-02-12T01:20:18.595Z,966.02
2018-02-12T01:21:18.577Z,966.02
2018-02-12T01:22:18.564Z,966.04
2018-02-12T01:23:18.547Z,966.16
2018-02-12T01:24:18.525Z,966.15
2018-02-12T01:25:18.515Z,966.17
2018-02-12T01:26:18.491Z,966.22
2018-02-12T01:27:18.474Z,966.25
2018-02-12T01:28:18.464Z,966.25
2018-02-12T01:29:18.441Z,966.26
2018-02-12T01:30:18.423Z,966.21
2018-02-12T01:31:18.415Z,966.23
2018-02-12T01:32:18.390Z,966.24
2018-02-12T01:33:18.372Z,966.23
2018-02-12T01:34:18.355Z,966.20
2018-02-12T01:35:18.340Z,966.18
2018-02-12T01:36:18.323Z,966.18
2018-02-12T01:37:18.304Z,966.19
2018-02-12T01:38:18.296Z,966.17
2018-02-12T01:39:18.271Z,966.16
2018-02-12T01:40:18.266Z,966.18
2018-02-12T01:41:18.243Z,966.18
2018-02-12T01:42:18.221Z,966.20
2018-02-12T01:43:18.209Z,966.24
2018-02-12T01:44:18.190Z,966.23
2018-02-12T01:45:18.170Z,966.24
2018-02-12T01:46:18.159Z,966.25
2018-02-12T01:47:18.138Z,966.25
2018-02-12T01:48:18.133Z,966.22
2018-02-12T01:49:18.103Z,966.22
2018-02-12T01:50:18.090Z,966.21
2018-02-12T01:51:18.068Z,966.20
2018-02-12T01:52:18.052Z,966.20
2018-02-12T01:53:18.034Z,966.20
2018-02-12T01:54:18.017Z,966.23
2018-02-12T01:55:18.006Z,966.23
2018-02-12T01:56:17.984Z,966.26
2018-02-12T01:57:17.971Z,966.25
2018-02-12T01:58:17.952Z,966.26
2018-02-12T01:59:17.934Z,966.29
2018-02-12T02:00:17.917Z,966.27
2018-02-12T02:01:17.899Z,966.24
2018-02-12T02:02:17.885Z,966.24
2018-02-12T02:03:17.866Z,966.27
2018-02-12T02:04:17.851Z,966.31
2018-02-12T02:05:17.834Z,966.30
2018-02-12T02:06:17.818Z,966.28
2018-02-12T02:07:17.796Z,966.30
2018-02-12T02:08:17.780Z,966.31
2018-02-12T02:09:17.763Z,966.36
2018-02-12T02:10:17.744Z,966.37
2018-02-12T02:11:17.730Z,966.40
2018-02-12T02:12:17.713Z,966.39
2018-02-12T02:13:17.700Z,966.34
2018-02-12T02:14:17.679Z,966.41
2018-02-12T02:15:17.660Z,966.46
2018-02-12T02:16:17.644Z,966.40
2018-02-12T02:17:17.628Z,966.40
2018-02-12T02:18:17.609Z,966.42
2018-02-12T02:19:17.597Z,966.45
2018-02-12T02:20:17.574Z,966.44
2018-02-12T02:21:17.563Z,966.42
2018-02-12T02:22:17.540Z,966.40
2018-02-12T02:23:17.523Z,966.44
2018-02-12T02:24:17.507Z,966.43
2018-02-12T02:25:17.489Z,966.43
2018-02-12T02:26:17.472Z,966.42
2018-02-12T02:27:17.458Z,966.43
2018-02-12T02:28:17.445Z,966.41
2018-02-12T02:29:17.426Z,966.41
2018-02-12T02:30:17.405Z,966.39
2018-02-12T02:31:17.388Z,966.40
2018-02-12T02:32:17.382Z,966.34
2018-02-12T02:33:17.359Z,966.38
2018-02-12T02:34:17.341Z,966.36
2018-02-12T02:35:17.323Z,966.40
2018-02-12T02:36:17.301Z,966.34
2018-02-12T02:37:17.288Z,966.35
2018-02-12T02:38:17.266Z,966.34
2018-02-12T02:39:17.252Z,966.37
2018-02-12T02:40:17.238Z,966.40
2018-02-12T02:41:17.214Z,966.41
2018-02-12T02:42:17.199Z,966.37
2018-02-12T02:43:17.188Z,966.37
2018-02-12T02:44:17.164Z,966.35
2018-02-12T02:45:17.152Z,966.41
2018-02-12T02:46:17.137Z,966.35
2018-02-12T02:47:17.113Z,966.38
2018-02-12T02:48:17.094Z,966.30
2018-02-12T02:49:17.077Z,966.28
2018-02-12T02:50:17.059Z,966.28
2018-02-12T02:51:17.050Z,966.28
2018-02-12T02:52:17.026Z,966.29
2018-02-12T02:53:17.007Z,966.28
2018-02-12T02:54:16.991Z,966.31
2018-02-12T02:55:16.976Z,966.35
2018-02-12T02:56:16.957Z,966.33
2018-02-12T02:57:16.938Z,966.34
2018-02-12T02:58:16.922Z,966.38
2018-02-12T02:59:16.911Z,966.42
2018-02-12T03:00:16.888Z,966.38
2018-02-12T03:01:16.872Z,966.43
2018-02-12T03:02:16.860Z,966.39
2018-02-12T03:03:16.843Z,966.38
2018-02-12T03:04:16.819Z,966.34
2018-02-12T03:05:16.801Z,966.36
2018-02-12T03:06:16.785Z,966.34
2018-02-12T03:07:16.774Z,966.36
2018-02-12T03:08:16.753Z,966.36
2018-02-12T03:09:16.740Z,966.40
2018-02-12T03:10:16.719Z,966.38
2018-02-12T03:11:16.698Z,966.38
2018-02-12T03:12:16.690Z,966.47
2018-02-12T03:13:16.672Z,966.47
2018-02-12T03:14:16.660Z,966.47
2018-02-12T03:15:16.635Z,966.48
2018-02-12T03:16:16.613Z,966.49
2018-02-12T03:17:16.600Z,966.55
2018-02-12T03:18:16.583Z,966.54
2018-02-12T03:19:16.572Z,966.50
2018-02-12T03:20:16.546Z,966.50
2018-02-12T03:21:16.527Z,966.52
2018-02-12T03:22:16.512Z,966.53
2018-02-12T03:23:16.503Z,966.48
2018-02-12T03:24:16.479Z,966.49
2018-02-12T03:25:16.459Z,966.54
2018-02-12T03:26:16.442Z,966.48
2018-02-12T03:27:16.426Z,966.50
2018-02-12T03:28:16.408Z,966.50
2018-02-12T03:29:16.389Z,966.46
2018-02-12T03:30:16.386Z,966.49
2018-02-12T03:31:16.355Z,966.42
2018-02-12T03:32:16.340Z,966.46
2018-02-12T03:33:16.322Z,966.43
2018-02-12T03:34:16.309Z,966.45
2018-02-12T03:35:16.295Z,966.43
2018-02-12T03:36:16.270Z,966.46
2018-02-12T03:37:16.252Z,966.45
2018-02-12T03:38:16.235Z,966.44
2018-02-12T03:39:16.216Z,966.43
2018-02-12T03:40:16.201Z,966.47
2018-02-12T03:41:16.182Z,966.49
2018-02-12T03:42:16.167Z,966.44
2018-02-12T03:43:16.147Z,966.47
2018-02-12T03:44:16.138Z,966.46
2018-02-12T03:45:16.115Z,966.45
2018-02-12T03:46:16.096Z,966.47
2018-02-12T03:47:16.080Z,966.47
2018-02-12T03:48:16.061Z,966.49
2018-02-12T03:49:16.048Z,966.48
2018-02-12T03:50:16.032Z,966.46
2018-02-12T03:51:16.009Z,966.48
2018-02-12T03:52:15.995Z,966.52
2018-02-12T03:53:15.975Z,966.56
2018-02-12T03:54:15.962Z,966.55
2018-02-12T03:55:15.940Z,966.56
2018-02-12T03:56:15.930Z,966.56
2018-02-12T03:57:15.911Z,966.57
2018-02-12T03:58:15.890Z,966.59
2018-02-12T03:59:15.873Z,966.61
2018-02-12T04:00:15.857Z,966.63
2018-02-12T04:01:15.837Z,966.59
2018-02-12T04:02:15.820Z,966.60
2018-02-12T04:03:15.803Z,966.62
2018-02-12T04:04:15.786Z,966.67
2018-02-12T04:05:15.768Z,966.64
2018-02-12T04:06:15.748Z,966.69
2018-02-12T04:07:15.732Z,966.68
2018-02-12T04:08:15.715Z,966.69
2018-02-12T04:09:15.697Z,966.68
2018-02-12T04:10:15.682Z,966.69
2018-02-12T04:11:15.661Z,966.73
2018-02-12T04:12:15.644Z,966.74
2018-02-12T04:13:15.628Z,966.76
2018-02-12T04:14:15.610Z,966.79
2018-02-12T04:15:15.593Z,966.79
2018-02-12T04:16:15.575Z,966.77
2018-02-12T04:17:15.558Z,966.80
2018-02-12T04:18:15.542Z,966.79
2018-02-12T04:19:15.525Z,966.85
2018-02-12T04:20:15.510Z,966.81
2018-02-12T04:21:15.492Z,966.88
2018-02-12T04:22:15.481Z,966.88
2018-02-12T04:23:15.455Z,966.90
2018-02-12T04:24:15.444Z,966.91
2018-02-12T04:25:15.418Z,966.92
2018-02-12T04:26:15.411Z,966.84
2018-02-12T04:27:15.390Z,966.93
2018-02-12T04:28:15.373Z,966.95
2018-02-12T04:29:15.352Z,966.95
2018-02-12T04:30:15.333Z,966.99
2018-02-12T04:31:15.322Z,967.01
2018-02-12T04:32:15.300Z,966.99
2018-02-12T04:33:15.281Z,967.03
2018-02-12T04:34:15.263Z,966.95
2018-02-12T04:35:15.246Z,966.98
2018-02-12T04:36:15.230Z,966.99
2018-02-12T04:37:15.215Z,967.06
2018-02-12T04:38:15.193Z,967.01
2018-02-12T04:39:15.183Z,967.06
2018-02-12T04:40:15.176Z,967.01
2018-02-12T04:41:15.142Z,967.09
2018-02-12T04:42:15.132Z,967.07
2018-02-12T04:43:15.113Z,967.08
2018-02-12T04:44:15.094Z,967.12
2018-02-12T04:45:15.071Z,967.14
2018-02-12T04:46:15.054Z,967.15
2018-02-12T04:47:15.048Z,967.10
2018-02-12T04:48:15.026Z,967.10
2018-02-12T04:49:15.006Z,967.10
2018-02-12T04:50:14.987Z,967.15
2018-02-12T04:51:14.970Z,967.20
2018-02-12T04:52:14.954Z,967.22
2018-02-12T04:53:14.938Z,967.23
2018-02-12T04:54:14.924Z,967.18
2018-02-12T04:55:14.901Z,967.21
2018-02-12T04:56:14.882Z,967.23
2018-02-12T04:57:14.870Z,967.22
2018-02-12T04:58:14.847Z,967.23
2018-02-12T04:59:14.829Z,967.24
2018-02-12T05:00:14.821Z,967.24
2018-02-12T05:01:14.797Z,967.23
2018-02-12T05:02:14.777Z,967.26
2018-02-12T05:03:14.764Z,967.28
2018-02-12T05:04:14.743Z,967.32
2018-02-12T05:05:14.732Z,967.28
2018-02-12T05:06:14.715Z,967.27
2018-02-12T05:07:14.691Z,967.32
2018-02-12T05:08:14.676Z,967.30
2018-02-12T05:09:14.654Z,967.30
2018-02-12T05:10:14.642Z,967.31
2018-02-12T05:11:14.629Z,967.39
2018-02-12T05:12:14.608Z,967.37
2018-02-12T05:13:14.593Z,967.39
2018-02-12T05:14:14.568Z,967.38
2018-02-12T05:15:14.560Z,967.41
2018-02-12T05:16:14.538Z,967.46
2018-02-12T05:17:14.518Z,967.42
2018-02-12T05:18:14.549Z,967.38
2018-02-12T05:19:14.480Z,967.42
2018-02-12T05:20:14.463Z,967.47
2018-02-12T05:21:14.445Z,967.41
2018-02-12T05:22:14.427Z,967.46
2018-02-12T05:23:14.409Z,967.50
2018-02-12T05:24:14.394Z,967.44
2018-02-12T05:25:14.379Z,967.46
2018-02-12T05:26:14.359Z,967.51
2018-02-12T05:27:14.346Z,967.45
2018-02-12T05:28:14.326Z,967.48
2018-02-12T05:29:14.308Z,967.54
2018-02-12T05:30:14.285Z,967.54
2018-02-12T05:31:14.267Z,967.53
2018-02-12T05:32:14.256Z,967.55
2018-02-12T05:33:14.232Z,967.53
2018-02-12T05:34:14.221Z,967.58
2018-02-12T05:35:14.197Z,967.56
2018-02-12T05:36:14.180Z,967.53
2018-02-12T05:37:14.162Z,967.62
2018-02-12T05:38:14.145Z,967.63
2018-02-12T05:39:14.126Z,967.62
2018-02-12T05:40:14.109Z,967.60
2018-02-12T05:41:14.091Z,967.66
2018-02-12T05:42:14.074Z,967.69
2018-02-12T05:43:14.054Z,967.66
2018-02-12T05:44:14.038Z,967.69
2018-02-12T05:45:14.021Z,967.69
2018-02-12T05:46:14.010Z,967.68
2018-02-12T05:47:13.990Z,967.74
2018-02-12T05:48:13.970Z,967.73
2018-02-12T05:49:13.950Z,967.77
2018-02-12T05:50:13.932Z,967.82
2018-02-12T05:51:13.914Z,967.83
2018-02-12T05:52:13.897Z,967.86
2018-02-12T05:53:13.878Z,967.88
2018-02-12T05:54:13.860Z,967.92
2018-02-12T05:55:13.854Z,967.90
2018-02-12T05:56:13.826Z,967.92
2018-02-12T05:57:13.807Z,967.98
2018-02-12T05:58:13.791Z,968.02
2018-02-12T05:59:13.771Z,968.02
2018-02-12T06:00:13.755Z,968.08
2018-02-12T06:01:13.742Z,968.09
2018-02-12T06:02:13.727Z,968.08
2018-02-12T06:03:13.702Z,968.11
2018-02-12T06:04:13.684Z,968.11
2018-02-12T06:05:13.668Z,968.17
2018-02-12T06:06:13.649Z,968.18
2018-02-12T06:07:13.632Z,968.20
2018-02-12T06:08:13.618Z,968.21
2018-02-12T06:09:13.594Z,968.26
2018-02-12T06:10:13.591Z,968.34
2018-02-12T06:11:13.562Z,968.33
2018-02-12T06:12:13.550Z,968.42
2018-02-12T06:13:13.523Z,968.34
2018-02-12T06:14:13.507Z,968.30
2018-02-12T06:15:13.493Z,968.39
2018-02-12T06:16:13.472Z,968.41
2018-02-12T06:17:13.454Z,968.47
2018-02-12T06:18:13.436Z,968.48
2018-02-12T06:19:13.420Z,968.46
2018-02-12T06:20:13.401Z,968.56
2018-02-12T06:21:13.383Z,968.60
2018-02-12T06:22:13.366Z,968.62
2018-02-12T06:23:13.348Z,968.64
2018-02-12T06:24:13.330Z,968.63
2018-02-12T06:25:13.312Z,968.60
2018-02-12T06:26:13.294Z,968.70
2018-02-12T06:27:13.278Z,968.68
2018-02-12T06:28:13.262Z,968.67
2018-02-12T06:29:13.245Z,968.71
2018-02-12T06:30:13.223Z,968.73
2018-02-12T06:31:13.207Z,968.73
2018-02-12T06:32:13.185Z,968.75
2018-02-12T06:33:13.169Z,968.75
2018-02-12T06:34:13.152Z,968.74
2018-02-12T06:35:13.134Z,968.78
2018-02-12T06:36:13.117Z,968.77
2018-02-12T06:37:13.107Z,968.80
2018-02-12T06:38:13.084Z,968.79
2018-02-12T06:39:13.064Z,968.79
2018-02-12T06:40:13.042Z,968.81
2018-02-12T06:41:13.029Z,968.80
2018-02-12T06:42:13.006Z,968.77
2018-02-12T06:43:12.990Z,968.81
2018-02-12T06:44:12.970Z,968.84
2018-02-12T06:45:12.957Z,968.89
2018-02-12T06:46:12.939Z,968.93
2018-02-12T06:47:12.917Z,968.92
2018-02-12T06:48:12.898Z,968.96
2018-02-12T06:49:12.882Z,969.04
2018-02-12T06:50:12.863Z,969.01
2018-02-12T06:51:12.843Z,969.02
2018-02-12T06:52:12.831Z,969.05
2018-02-12T06:53:12.808Z,969.06
2018-02-12T06:54:12.790Z,969.06
2018-02-12T06:55:12.781Z,969.07
2018-02-12T06:56:12.762Z,969.13
2018-02-12T06:57:12.737Z,969.12
2018-02-12T06:58:12.725Z,969.10
2018-02-12T06:59:12.704Z,969.15
2018-02-12T07:00:12.684Z,969.20
2018-02-12T07:01:12.667Z,969.15
2018-02-12T07:02:12.653Z,969.23
2018-02-12T07:03:12.631Z,969.23
2018-02-12T07:04:12.613Z,969.25
2018-02-12T07:05:12.595Z,969.29
2018-02-12T07:06:12.584Z,969.29
2018-02-12T07:07:12.562Z,969.27
2018-02-12T07:08:12.549Z,969.37
2018-02-12T07:09:12.525Z,969.34
2018-02-12T07:10:12.513Z,969.35
2018-02-12T07:11:12.492Z,969.39
2018-02-12T07:12:12.483Z,969.38
2018-02-12T07:13:12.456Z,969.40
2018-02-12T07:14:12.440Z,969.41
2018-02-12T07:15:12.428Z,969.39
2018-02-12T07:16:12.407Z,969.40
2018-02-12T07:17:12.384Z,969.40
2018-02-12T07:18:12.367Z,969.41
2018-02-12T07:19:12.353Z,969.42
2018-02-12T07:20:12.332Z,969.46
2018-02-12T07:21:12.313Z,969.49
2018-02-12T07:22:12.300Z,969.47
2018-02-12T07:23:12.285Z,969.48
2018-02-12T07:24:12.261Z,969.49
2018-02-12T07:25:12.243Z,969.52
2018-02-12T07:26:12.225Z,969.51
2018-02-12T07:27:12.209Z,969.51
2018-02-12T07:28:12.191Z,969.50
2018-02-12T07:29:12.175Z,969.55
2018-02-12T07:30:12.165Z,969.54
2018-02-12T07:31:12.144Z,969.55
2018-02-12T07:32:12.123Z,969.55
2018-02-12T07:33:12.104Z,969.59
2018-02-12T07:34:12.091Z,969.61
2018-02-12T07:35:12.071Z,969.66
2018-02-12T07:36:12.050Z,969.67
2018-02-12T07:37:12.039Z,969.68
2018-02-12T07:38:12.022Z,969.69
2018-02-12T07:39:11.998Z,969.74
2018-02-12T07:40:11.980Z,969.74
2018-02-12T07:41:11.968Z,969.78
2018-02-12T07:42:11.952Z,969.79
2018-02-12T07:43:11.928Z,969.78
2018-02-12T07:44:11.914Z,969.82
2018-02-12T07:45:11.894Z,969.83
2018-02-12T07:46:11.875Z,969.87
2018-02-12T07:47:11.865Z,969.92
2018-02-12T07:48:11.846Z,969.90
2018-02-12T07:49:11.829Z,969.94
2018-02-12T07:50:11.812Z,969.96
2018-02-12T07:51:11.789Z,969.97
2018-02-12T07:52:11.773Z,969.95
2018-02-12T07:53:11.753Z,969.93
2018-02-12T07:54:11.746Z,969.95
2018-02-12T07:55:11.726Z,969.98
2018-02-12T07:56:11.703Z,970.05
2018-02-12T07:57:11.684Z,970.00
2018-02-12T07:58:11.673Z,970.00
2018-02-12T07:59:11.653Z,970.03
2018-02-12T08:00:11.632Z,970.04
2018-02-12T08:01:11.614Z,970.02
2018-02-12T08:02:11.599Z,970.09
2018-02-12T08:03:11.586Z,970.10
2018-02-12T08:04:11.562Z,970.13
2018-02-12T08:05:11.545Z,970.12
2018-02-12T08:06:11.573Z,970.18
2018-02-12T08:07:11.510Z,970.15
2018-02-12T08:08:11.492Z,970.19
2018-02-12T08:09:11.474Z,970.20
2018-02-12T08:10:11.459Z,970.24
2018-02-12T08:11:11.445Z,970.20
2018-02-12T08:12:11.453Z,970.26
2018-02-12T08:13:11.411Z,970.27
2018-02-12T08:14:11.391Z,970.28
2018-02-12T08:15:11.380Z,970.35
2018-02-12T08:16:11.353Z,970.34
2018-02-12T08:17:11.340Z,970.33
2018-02-12T08:18:11.319Z,970.33
2018-02-12T08:19:11.305Z,970.34
2018-02-12T08:20:11.284Z,970.34
2018-02-12T08:21:11.273Z,970.37
2018-02-12T08:22:11.249Z,970.39
2018-02-12T08:23:11.234Z,970.40
2018-02-12T08:24:11.214Z,970.42
2018-02-12T08:25:11.199Z,970.43
2018-02-12T08:26:11.181Z,970.42
2018-02-12T08:27:11.168Z,970.51
2018-02-12T08:28:11.145Z,970.51
2018-02-12T08:29:11.127Z,970.53
2018-02-12T08:30:11.116Z,970.56
2018-02-12T08:31:11.094Z,970.57
2018-02-12T08:32:11.081Z,970.59
2018-02-12T08:33:11.059Z,970.59
2018-02-12T08:34:11.043Z,970.60
2018-02-12T08:35:11.025Z,970.60
2018-02-12T08:36:11.009Z,970.56
2018-02-12T08:37:10.996Z,970.60
2018-02-12T08:38:10.984Z,970.64
2018-02-12T08:39:10.956Z,970.64
2018-02-12T08:40:10.941Z,970.66
2018-02-12T08:41:10.922Z,970.64
2018-02-12T08:42:10.907Z,970.65
2018-02-12T08:43:10.893Z,970.67
2018-02-12T08:44:10.872Z,970.71
2018-02-12T08:45:10.900Z,970.72
2018-02-12T08:46:10.835Z,970.71
2018-02-12T08:47:10.821Z,970.73
2018-02-12T08:48:10.804Z,970.76
2018-02-12T08:49:10.833Z,970.80
2018-02-12T08:50:10.776Z,970.81
2018-02-12T08:51:10.754Z,970.88
2018-02-12T08:52:10.735Z,970.91
2018-02-12T08:53:10.723Z,970.89
2018-02-12T08:54:10.702Z,970.92
2018-02-12T08:55:10.685Z,970.90
2018-02-12T08:56:10.668Z,970.94
2018-02-12T08:57:10.658Z,970.92
2018-02-12T08:58:10.635Z,970.93
2018-02-12T08:59:10.625Z,970.97
2018-02-12T09:00:10.604Z,970.98
2018-02-12T09:01:10.589Z,970.96
2018-02-12T09:02:10.576Z,970.97
2018-02-12T09:03:10.550Z,970.99
2018-02-12T09:04:10.533Z,971.04
2018-02-12T09:05:10.516Z,971.03
2018-02-12T09:06:10.505Z,971.03
2018-02-12T09:07:10.486Z,971.04
2018-02-12T09:08:10.468Z,971.06
2018-02-12T09:09:10.455Z,971.07
2018-02-12T09:10:10.437Z,971.12
2018-02-12T09:11:10.420Z,971.07
2018-02-12T09:12:10.399Z,971.07
2018-02-12T09:13:10.390Z,971.12
2018-02-12T09:14:10.371Z,971.11
2018-02-12T09:15:10.401Z,971.13
2018-02-12T09:16:10.335Z,971.15
2018-02-12T09:17:10.319Z,971.21
2018-02-12T09:18:10.393Z,971.16
2018-02-12T09:19:10.287Z,971.19
2018-02-12T09:20:10.267Z,971.18
2018-02-12T09:21:10.247Z,971.15
2018-02-12T09:22:10.232Z,971.19
2018-02-12T09:23:10.220Z,971.16
2018-02-12T09:24:10.204Z,971.23
2018-02-12T09:25:10.182Z,971.18
2018-02-12T09:26:10.165Z,971.23
2018-02-12T09:27:10.153Z,971.25
2018-02-12T09:28:10.132Z,971.27
2018-02-12T09:29:10.118Z,971.29
2018-02-12T09:30:10.098Z,971.28
2018-02-12T09:31:10.086Z,971.33
2018-02-12T09:32:10.067Z,971.35
2018-02-12T09:33:10.056Z,971.38
2018-02-12T09:34:10.035Z,971.39
2018-02-12T09:35:10.021Z,971.38
2018-02-12T09:36:09.999Z,971.39
2018-02-12T09:37:09.985Z,971.43
2018-02-12T09:38:09.964Z,971.43
2018-02-12T09:39:09.948Z,971.43
2018-02-12T09:40:09.937Z,971.43
2018-02-12T09:41:09.914Z,971.41
2018-02-12T09:42:09.898Z,971.47
2018-02-12T09:43:09.891Z,971.44
2018-02-12T09:44:09.867Z,971.52
2018-02-12T09:45:09.848Z,971.55
2018-02-12T09:46:09.839Z,971.57
2018-02-12T09:47:09.815Z,971.56
2018-02-12T09:48:09.802Z,971.57
2018-02-12T09:49:09.787Z,971.54
2018-02-12T09:50:09.764Z,971.64
2018-02-12T09:51:09.748Z,971.67
2018-02-12T09:52:09.735Z,971.65
2018-02-12T09:53:09.713Z,971.67
2018-02-12T09:54:09.697Z,971.67
2018-02-12T09:55:09.681Z,971.66
2018-02-12T09:56:09.670Z,971.69
2018-02-12T09:57:09.648Z,971.67
2018-02-12T09:58:09.634Z,971.70
2018-02-12T09:59:09.613Z,971.68
2018-02-12T10:00:09.607Z,971.72
2018-02-12T10:01:09.585Z,971.65
2018-02-12T10:02:09.563Z,971.69
2018-02-12T10:03:09.552Z,971.74
2018-02-12T10:04:09.530Z,971.70
2018-02-12T10:05:09.511Z,971.74
2018-02-12T10:06:09.505Z,971.74
2018-02-12T10:07:09.478Z,971.78
2018-02-12T10:08:09.470Z,971.77
2018-02-12T10:09:09.451Z,971.77
2018-02-12T10:10:09.428Z,971.89
2018-02-12T10:11:09.412Z,971.86
2018-02-12T10:12:09.396Z,971.88
2018-02-12T10:13:09.388Z,971.87
2018-02-12T10:14:09.363Z,971.94
2018-02-12T10:15:09.351Z,971.94
2018-02-12T10:16:09.330Z,971.95
2018-02-12T10:17:09.316Z,971.94
2018-02-12T10:18:09.296Z,971.94
2018-02-12T10:19:09.282Z,971.93
2018-02-12T10:20:09.261Z,971.91
2018-02-12T10:21:09.253Z,971.91
2018-02-12T10:22:09.234Z,971.87
2018-02-12T10:23:09.215Z,971.91
2018-02-12T10:24:09.202Z,971.92
2018-02-12T10:25:09.178Z,971.89
2018-02-12T10:26:09.162Z,971.90
2018-02-12T10:27:09.143Z,971.90
2018-02-12T10:28:09.129Z,971.89
2018-02-12T10:29:09.113Z,971.90
2018-02-12T10:30:09.098Z,971.89
2018-02-12T10:31:09.081Z,971.89
2018-02-12T10:32:09.063Z,971.92
2018-02-12T10:33:09.044Z,971.94
2018-02-12T10:34:09.026Z,971.91
2018-02-12T10:35:09.007Z,971.95
2018-02-12T10:36:08.993Z,971.95
2018-02-12T10:37:08.982Z,971.95
2018-02-12T10:38:08.957Z,971.94
2018-02-12T10:39:08.948Z,971.85
2018-02-12T10:40:08.927Z,971.82
2018-02-12T10:41:08.906Z,971.83
2018-02-12T10:42:08.890Z,971.81
2018-02-12T10:43:08.875Z,971.80
2018-02-12T10:44:08.858Z,971.78
2018-02-12T10:45:08.848Z,971.80
2018-02-12T10:46:08.822Z,971.84
2018-02-12T10:47:08.812Z,971.82
2018-02-12T10:48:08.792Z,971.79
2018-02-12T10:49:08.805Z,971.81
2018-02-12T10:50:08.762Z,971.82
2018-02-12T10:51:08.743Z,971.82
2018-02-12T10:52:08.727Z,971.79
2018-02-12T10:53:08.716Z,971.87
2018-02-12T10:54:08.700Z,971.89
2018-02-12T10:55:08.687Z,971.84
2018-02-12T10:56:08.660Z,971.79
2018-02-12T10:57:08.646Z,971.81
2018-02-12T10:58:08.630Z,971.84
2018-02-12T10:59:08.642Z,971.89
2018-02-12T11:00:08.605Z,971.92
2018-02-12T11:01:08.588Z,971.83
2018-02-12T11:02:08.571Z,971.83
2018-02-12T11:03:08.556Z,971.79
2018-02-12T11:04:08.540Z,971.86
2018-02-12T11:05:08.520Z,971.86
2018-02-12T11:06:08.503Z,971.83
2018-02-12T11:07:08.490Z,971.86
2018-02-12T11:08:08.472Z,971.85
2018-02-12T11:09:08.458Z,971.87
2018-02-12T11:10:08.450Z,971.85
2018-02-12T11:11:08.424Z,971.94
2018-02-12T11:12:08.410Z,971.94
2018-02-12T11:13:08.394Z,971.98
2018-02-12T11:14:08.377Z,971.96
2018-02-12T11:15:08.365Z,971.97
2018-02-12T11:16:08.350Z,971.95
2018-02-12T11:17:08.328Z,971.88
2018-02-12T11:18:08.313Z,971.91
2018-02-12T11:19:08.302Z,971.90
2018-02-12T11:20:08.283Z,971.87
2018-02-12T11:21:08.269Z,971.92
2018-02-12T11:22:08.247Z,971.90
2018-02-12T11:23:08.231Z,971.87
2018-02-12T11:24:08.215Z,971.84
2018-02-12T11:25:08.197Z,971.83
2018-02-12T11:26:08.186Z,971.82
2018-02-12T11:27:08.164Z,971.78
2018-02-12T11:28:08.150Z,971.78
2018-02-12T11:29:08.129Z,971.74
2018-02-12T11:30:08.118Z,971.75
2018-02-12T11:31:08.099Z,971.75
2018-02-12T11:32:08.079Z,971.80
2018-02-12T11:33:08.067Z,971.80
2018-02-12T11:34:08.046Z,971.84
2018-02-12T11:35:08.039Z,971.85
2018-02-12T11:36:08.011Z,971.87
2018-02-12T11:37:07.993Z,971.86
2018-02-12T11:38:07.978Z,971.86
2018-02-12T11:39:07.961Z,971.87
2018-02-12T11:40:07.946Z,971.84
2018-02-12T11:41:07.926Z,971.84
2018-02-12T11:42:07.911Z,971.86
2018-02-12T11:43:07.893Z,971.85
2018-02-12T11:44:07.886Z,971.88
2018-02-12T11:45:07.860Z,971.88
2018-02-12T11:46:07.845Z,971.87
2018-02-12T11:47:07.826Z,971.85
2018-02-12T11:48:07.810Z,971.88
2018-02-12T11:49:07.794Z,971.84
2018-02-12T11:50:07.780Z,971.95
2018-02-12T11:51:07.760Z,971.97
2018-02-12T11:52:07.749Z,971.92
2018-02-12T11:53:07.732Z,971.93
2018-02-12T11:54:07.709Z,971.90
2018-02-12T11:55:07.699Z,971.88
2018-02-12T11:56:07.676Z,971.92
2018-02-12T11:57:07.658Z,971.90
2018-02-12T11:58:07.642Z,971.89
2018-02-12T11:59:07.625Z,971.90
2018-02-12T12:00:07.613Z,971.87
2018-02-12T12:01:07.591Z,971.91
2018-02-12T12:02:07.575Z,971.85
2018-02-12T12:03:07.564Z,971.89
2018-02-12T12:04:07.542Z,971.83
2018-02-12T12:05:07.523Z,971.86
2018-02-12T12:06:07.511Z,971.84
2018-02-12T12:07:07.494Z,971.84
2018-02-12T12:08:07.477Z,971.82
2018-02-12T12:09:07.458Z,971.80
2018-02-12T12:10:07.441Z,971.78
2018-02-12T12:11:07.428Z,971.81
2018-02-12T12:12:07.417Z,971.82
2018-02-12T12:13:07.398Z,971.83
2018-02-12T12:14:07.375Z,971.83
2018-02-12T12:15:07.359Z,971.81
2018-02-12T12:16:07.348Z,971.81
2018-02-12T12:17:07.326Z,971.82
2018-02-12T12:18:07.314Z,971.87
2018-02-12T12:19:07.293Z,971.84
2018-02-12T12:20:07.277Z,971.85
2018-02-12T12:21:07.260Z,971.84
2018-02-12T12:22:07.244Z,971.81
2018-02-12T12:23:07.271Z,971.85
2018-02-12T12:24:07.223Z,971.87
2018-02-12T12:25:07.196Z,971.85
2018-02-12T12:26:07.185Z,971.75
2018-02-12T12:27:07.160Z,971.77
2018-02-12T12:28:07.149Z,971.77